createdAt,value
2018-05-23T00:00:10.718Z,1013.74
2018-05-23T00:01:10.746Z,1013.73
2018-05-23T00:02:10.717Z,1013.73
2018-05-23T00:03:10.758Z,1013.72
2018-05-23T00:04:10.754Z,1013.78
2018-05-23T00:05:10.762Z,1013.69
2018-05-23T00:06:10.800Z,1013.68
2018-05-23T00:07:10.780Z,1013.66
2018-05-23T00:08:10.807Z,1013.69
2018-05-23T00:09:10.807Z,1013.72
2018-05-23T00:10:10.857Z,1013.67
2018-05-23T00:11:10.834Z,1013.65
2018-05-23T00:12:10.878Z,1013.68
2018-05-23T00:13:10.858Z,1013.71
2018-05-23T00:14:10.890Z,1013.69
2018-05-23T00:15:10.882Z,1013.65
2018-05-23T00:16:10.883Z,1013.64
2018-05-23T00:17:10.946Z,1013.72
2018-05-23T00:18:10.965Z,1013.67
2018-05-23T00:19:10.935Z,1013.68
2018-05-23T00:20:10.945Z,1013.70
2018-05-23T00:21:10.948Z,1013.73
2018-05-23T00:22:10.946Z,1013.76
2018-05-23T00:23:10.998Z,1013.73
2018-05-23T00:24:11.017Z,1013.73
2018-05-23T00:25:11.050Z,1013.79
2018-05-23T00:26:11.020Z,1013.77
2018-05-23T00:27:11.021Z,1013.78
2018-05-23T00:28:11.057Z,1013.75
2018-05-23T00:29:11.035Z,1013.77
2018-05-23T00:30:11.089Z,1013.84
2018-05-23T00:31:11.089Z,1013.79
2018-05-23T00:32:11.084Z,1013.80
2018-05-23T00:33:11.085Z,1013.76
2018-05-23T00:34:11.088Z,1013.78
2018-05-23T00:35:11.145Z,1013.77
2018-05-23T00:36:11.156Z,1013.80
2018-05-23T00:37:11.134Z,1013.77
2018-05-23T00:38:11.162Z,1013.79
2018-05-23T00:39:11.184Z,1013.73
2018-05-23T00:40:11.178Z,1013.78
2018-05-23T00:41:11.233Z,1013.76
2018-05-23T00:42:11.226Z,1013.74
2018-05-23T00:43:11.252Z,1013.72
2018-05-23T00:44:11.203Z,1013.74
2018-05-23T00:45:11.216Z,1013.76
2018-05-23T00:46:11.270Z,1013.75
2018-05-23T00:47:11.260Z,1013.77
2018-05-23T00:48:11.289Z,1013.80
2018-05-23T00:49:11.336Z,1013.79
2018-05-23T00:50:11.288Z,1013.78
2018-05-23T00:51:11.307Z,1013.76
2018-05-23T00:52:11.356Z,1013.80
2018-05-23T00:53:11.322Z,1013.81
2018-05-23T00:54:11.355Z,1013.78
2018-05-23T00:55:11.369Z,1013.78
2018-05-23T00:56:11.366Z,1013.81
2018-05-23T00:57:11.409Z,1013.82
2018-05-23T00:58:11.443Z,1013.82
2018-05-23T00:59:11.441Z,1013.81
2018-05-23T01:00:11.403Z,1013.84
2018-05-23T01:01:11.417Z,1013.83
2018-05-23T01:02:11.948Z,1013.83
2018-05-23T01:03:11.433Z,1013.84
2018-05-23T01:04:11.444Z,1013.83
2018-05-23T01:05:11.456Z,1013.87
2018-05-23T01:06:11.459Z,1013.87
2018-05-23T01:07:11.489Z,1013.84
2018-05-23T01:08:11.522Z,1013.86
2018-05-23T01:09:11.522Z,1013.86
2018-05-23T01:10:11.524Z,1013.90
2018-05-23T01:11:11.531Z,1013.92
2018-05-23T01:12:11.558Z,1013.89
2018-05-23T01:13:11.861Z,1013.91
2018-05-23T01:14:11.583Z,1013.89
2018-05-23T01:15:11.582Z,1013.93
2018-05-23T01:16:11.598Z,1013.97
2018-05-23T01:17:11.591Z,1013.97
2018-05-23T01:18:11.606Z,1013.97
2018-05-23T01:19:11.684Z,1014.00
2018-05-23T01:20:11.641Z,1014.03
2018-05-23T01:21:11.662Z,1014.02
2018-05-23T01:22:11.683Z,1014.04
2018-05-23T01:23:11.683Z,1014.03
2018-05-23T01:24:11.735Z,1014.02
2018-05-23T01:25:11.730Z,1014.07
2018-05-23T01:26:11.699Z,1014.04
2018-05-23T01:27:11.711Z,1014.05
2018-05-23T01:28:11.727Z,1014.05
2018-05-23T01:29:11.730Z,1014.00
2018-05-23T01:30:11.800Z,1014.02
2018-05-23T01:31:11.782Z,1014.04
2018-05-23T01:32:11.768Z,1014.06
2018-05-23T01:33:11.773Z,1014.07
2018-05-23T01:34:11.813Z,1014.09
2018-05-23T01:35:11.903Z,1014.08
2018-05-23T01:36:11.879Z,1014.12
2018-05-23T01:37:11.833Z,1014.14
2018-05-23T01:38:11.841Z,1014.17
2018-05-23T01:39:11.846Z,1014.12
2018-05-23T01:40:11.869Z,1014.14
2018-05-23T01:41:11.961Z,1014.15
2018-05-23T01:42:11.937Z,1014.16
2018-05-23T01:43:11.921Z,1014.13
2018-05-23T01:44:11.918Z,1014.17
2018-05-23T01:45:11.933Z,1014.18
2018-05-23T01:46:11.933Z,1014.18
2018-05-23T01:47:11.989Z,1014.20
2018-05-23T01:48:11.960Z,1014.21
2018-05-23T01:49:11.966Z,1014.17
2018-05-23T01:50:11.972Z,1014.21
2018-05-23T01:51:11.974Z,1014.20
2018-05-23T01:52:12.030Z,1014.18
2018-05-23T01:53:12.043Z,1014.17
2018-05-23T01:54:12.014Z,1014.19
2018-05-23T01:55:12.053Z,1014.19
2018-05-23T01:56:12.050Z,1014.20
2018-05-23T01:57:12.104Z,1014.19
2018-05-23T01:58:12.152Z,1014.17
2018-05-23T01:59:12.076Z,1014.23
2018-05-23T02:00:12.080Z,1014.17
2018-05-23T02:01:12.149Z,1014.22
2018-05-23T02:02:12.125Z,1014.25
2018-05-23T02:03:12.172Z,1014.23
2018-05-23T02:04:12.191Z,1014.20
2018-05-23T02:05:12.166Z,1014.25
2018-05-23T02:06:12.166Z,1014.20
2018-05-23T02:07:12.195Z,1014.26
2018-05-23T02:08:12.177Z,1014.21
2018-05-23T02:09:12.248Z,1014.23
2018-05-23T02:10:12.206Z,1014.24
2018-05-23T02:11:12.240Z,1014.21
2018-05-23T02:12:12.226Z,1014.21
2018-05-23T02:13:12.236Z,1014.20
2018-05-23T02:14:12.285Z,1014.20
2018-05-23T02:15:12.286Z,1014.22
2018-05-23T02:16:12.283Z,1014.19
2018-05-23T02:17:12.331Z,1014.19
2018-05-23T02:18:12.399Z,1014.25
2018-05-23T02:19:12.317Z,1014.19
2018-05-23T02:20:12.324Z,1014.17
2018-05-23T02:21:12.350Z,1014.19
2018-05-23T02:22:12.423Z,1014.18
2018-05-23T02:23:12.418Z,1014.14
2018-05-23T02:24:12.373Z,1014.16
2018-05-23T02:25:12.384Z,1014.19
2018-05-23T02:26:12.437Z,1014.17
2018-05-23T02:27:12.407Z,1014.17
2018-05-23T02:28:12.448Z,1014.16
2018-05-23T02:29:12.459Z,1014.18
2018-05-23T02:30:12.502Z,1014.18
2018-05-23T02:31:12.461Z,1014.21
2018-05-23T02:32:12.488Z,1014.22
2018-05-23T02:33:12.499Z,1014.22
2018-05-23T02:34:12.554Z,1014.20
2018-05-23T02:35:12.747Z,1014.23
2018-05-23T02:36:12.505Z,1014.24
2018-05-23T02:37:12.534Z,1014.27
2018-05-23T02:38:12.532Z,1014.28
2018-05-23T02:39:12.545Z,1014.30
2018-05-23T02:40:12.548Z,1014.34
2018-05-23T02:41:12.598Z,1014.33
2018-05-23T02:42:12.579Z,1014.31
2018-05-23T02:43:12.591Z,1014.30
2018-05-23T02:44:12.600Z,1014.35
2018-05-23T02:45:12.609Z,1014.31
2018-05-23T02:46:12.645Z,1014.33
2018-05-23T02:47:12.855Z,1014.34
2018-05-23T02:48:12.661Z,1014.30
2018-05-23T02:49:12.657Z,1014.31
2018-05-23T02:50:12.662Z,1014.33
2018-05-23T02:51:12.714Z,1014.35
2018-05-23T02:52:12.686Z,1014.34
2018-05-23T02:53:12.685Z,1014.39
2018-05-23T02:54:12.729Z,1014.35
2018-05-23T02:55:12.710Z,1014.37
2018-05-23T02:56:12.770Z,1014.38
2018-05-23T02:57:12.774Z,1014.36
2018-05-23T02:58:12.760Z,1014.37
2018-05-23T02:59:12.789Z,1014.40
2018-05-23T03:00:12.772Z,1014.42
2018-05-23T03:01:12.792Z,1014.39
2018-05-23T03:02:12.842Z,1014.42
2018-05-23T03:03:12.806Z,1014.43
2018-05-23T03:04:12.847Z,1014.39
2018-05-23T03:05:12.832Z,1014.44
2018-05-23T03:06:12.841Z,1014.46
2018-05-23T03:07:12.850Z,1014.45
2018-05-23T03:08:12.853Z,1014.46
2018-05-23T03:09:12.901Z,1014.46
2018-05-23T03:10:12.910Z,1014.46
2018-05-23T03:11:12.901Z,1014.48
2018-05-23T03:12:12.918Z,1014.50
2018-05-23T03:13:12.943Z,1014.49
2018-05-23T03:14:13.015Z,1014.49
2018-05-23T03:15:12.944Z,1014.51
2018-05-23T03:16:12.957Z,1014.51
2018-05-23T03:17:13.000Z,1014.53
2018-05-23T03:18:12.970Z,1014.57
2018-05-23T03:19:13.011Z,1014.58
2018-05-23T03:20:13.012Z,1014.57
2018-05-23T03:21:13.080Z,1014.61
2018-05-23T03:22:13.078Z,1014.62
2018-05-23T03:23:13.031Z,1014.66
2018-05-23T03:24:13.059Z,1014.66
2018-05-23T03:25:13.061Z,1014.69
2018-05-23T03:26:13.059Z,1014.69
2018-05-23T03:27:13.125Z,1014.72
2018-05-23T03:28:13.091Z,1014.73
2018-05-23T03:29:13.126Z,1014.78
2018-05-23T03:30:13.105Z,1014.76
2018-05-23T03:31:13.117Z,1014.78
2018-05-23T03:32:13.165Z,1014.81
2018-05-23T03:33:13.176Z,1014.79
2018-05-23T03:34:13.158Z,1014.87
2018-05-23T03:35:13.169Z,1014.84
2018-05-23T03:36:13.197Z,1014.84
2018-05-23T03:37:13.228Z,1014.89
2018-05-23T03:38:13.205Z,1014.85
2018-05-23T03:39:13.264Z,1014.86
2018-05-23T03:40:13.300Z,1014.86
2018-05-23T03:41:13.235Z,1014.89
2018-05-23T03:42:13.241Z,1014.87
2018-05-23T03:43:13.294Z,1014.88
2018-05-23T03:44:13.345Z,1014.93
2018-05-23T03:45:13.300Z,1014.92
2018-05-23T03:46:13.307Z,1014.92
2018-05-23T03:47:13.303Z,1014.94
2018-05-23T03:48:13.327Z,1014.91
2018-05-23T03:49:13.365Z,1014.99
2018-05-23T03:50:13.405Z,1014.97
2018-05-23T03:51:13.386Z,1014.97
2018-05-23T03:52:13.374Z,1014.99
2018-05-23T03:53:13.366Z,1014.99
2018-05-23T03:54:13.426Z,1015.04
2018-05-23T03:55:13.423Z,1015.02
2018-05-23T03:56:13.446Z,1015.07
2018-05-23T03:57:13.432Z,1015.07
2018-05-23T03:58:13.450Z,1015.10
2018-05-23T03:59:13.456Z,1015.12
2018-05-23T04:00:13.464Z,1015.16
2018-05-23T04:01:13.521Z,1015.20
2018-05-23T04:02:13.483Z,1015.22
2018-05-23T04:03:13.498Z,1015.21
2018-05-23T04:04:13.512Z,1015.20
2018-05-23T04:05:13.543Z,1015.22
2018-05-23T04:06:13.567Z,1015.22
2018-05-23T04:07:13.593Z,1015.23
2018-05-23T04:08:13.567Z,1015.19
2018-05-23T04:09:13.565Z,1015.27
2018-05-23T04:10:13.581Z,1015.24
2018-05-23T04:11:13.583Z,1015.31
2018-05-23T04:12:13.651Z,1015.33
2018-05-23T04:13:13.600Z,1015.32
2018-05-23T04:14:13.643Z,1015.36
2018-05-23T04:15:13.649Z,1015.39
2018-05-23T04:16:13.729Z,1015.37
2018-05-23T04:17:13.686Z,1015.40
2018-05-23T04:18:13.695Z,1015.46
2018-05-23T04:19:13.691Z,1015.45
2018-05-23T04:20:13.698Z,1015.43
2018-05-23T04:21:13.701Z,1015.44
2018-05-23T04:22:13.723Z,1015.46
2018-05-23T04:23:13.772Z,1015.49
2018-05-23T04:24:13.757Z,1015.50
2018-05-23T04:25:13.762Z,1015.45
2018-05-23T04:26:13.772Z,1015.44
2018-05-23T04:27:13.801Z,1015.49
2018-05-23T04:28:13.858Z,1015.51
2018-05-23T04:29:13.812Z,1015.50
2018-05-23T04:30:13.818Z,1015.49
2018-05-23T04:31:13.829Z,1015.51
2018-05-23T04:32:13.845Z,1015.48
2018-05-23T04:33:13.889Z,1015.49
2018-05-23T04:34:13.863Z,1015.51
2018-05-23T04:35:13.898Z,1015.50
2018-05-23T04:36:13.921Z,1015.45
2018-05-23T04:37:13.914Z,1015.47
2018-05-23T04:38:13.930Z,1015.42
2018-05-23T04:39:13.940Z,1015.42
2018-05-23T04:40:13.943Z,1015.43
2018-05-23T04:41:14.003Z,1015.47
2018-05-23T04:42:13.967Z,1015.51
2018-05-23T04:43:13.987Z,1015.56
2018-05-23T04:44:13.992Z,1015.60
2018-05-23T04:45:14.031Z,1015.62
2018-05-23T04:46:14.035Z,1015.67
2018-05-23T04:47:14.032Z,1015.69
2018-05-23T04:48:14.096Z,1015.72
2018-05-23T04:49:14.078Z,1015.82
2018-05-23T04:50:14.062Z,1015.92
2018-05-23T04:51:14.074Z,1015.84
2018-05-23T04:52:14.105Z,1015.91
2018-05-23T04:53:14.164Z,1015.96
2018-05-23T04:54:14.123Z,1015.97
2018-05-23T04:55:14.167Z,1015.94
2018-05-23T04:56:14.156Z,1016.03
2018-05-23T04:57:14.186Z,1016.03
2018-05-23T04:58:14.207Z,1016.09
2018-05-23T04:59:14.225Z,1016.15
2018-05-23T05:00:14.228Z,1016.25
2018-05-23T05:01:14.250Z,1016.33
2018-05-23T05:02:14.228Z,1016.42
2018-05-23T05:03:14.238Z,1016.43
2018-05-23T05:04:14.280Z,1016.47
2018-05-23T05:05:14.286Z,1016.55
2018-05-23T05:06:14.326Z,1016.59
2018-05-23T05:07:14.291Z,1016.74
2018-05-23T05:08:14.324Z,1016.82
2018-05-23T05:09:14.319Z,1016.79
2018-05-23T05:10:14.354Z,1016.48
2018-05-23T05:11:14.416Z,1016.24
2018-05-23T05:12:14.362Z,1016.50
2018-05-23T05:13:14.382Z,1016.92
2018-05-23T05:14:14.417Z,1016.98
2018-05-23T05:15:14.442Z,1017.09
2018-05-23T05:16:14.523Z,1017.12
2018-05-23T05:17:14.471Z,1017.08
2018-05-23T05:18:14.489Z,1017.16
2018-05-23T05:19:14.468Z,1017.15
2018-05-23T05:20:14.551Z,1017.19
2018-05-23T05:21:14.517Z,1017.17
2018-05-23T05:22:14.538Z,1017.13
2018-05-23T05:23:14.567Z,1017.09
2018-05-23T05:24:14.558Z,1017.09
2018-05-23T05:25:14.619Z,1017.08
2018-05-23T05:26:14.590Z,1017.12
2018-05-23T05:27:14.607Z,1017.14
2018-05-23T05:28:14.606Z,1017.12
2018-05-23T05:29:14.632Z,1017.11
2018-05-23T05:30:14.724Z,1017.14
2018-05-23T05:31:14.708Z,1017.18
2018-05-23T05:32:14.682Z,1017.20
2018-05-23T05:33:14.694Z,1016.93
2018-05-23T05:34:14.754Z,1016.68
2018-05-23T05:35:14.755Z,1016.63
2018-05-23T05:36:14.824Z,1016.83
2018-05-23T05:37:14.767Z,1017.05
2018-05-23T05:38:14.791Z,1017.11
2018-05-23T05:39:14.807Z,1017.10
2018-05-23T05:40:14.823Z,1017.06
2018-05-23T05:41:14.903Z,1017.00
2018-05-23T05:42:14.928Z,1016.84
2018-05-23T05:43:14.874Z,1016.46
2018-05-23T05:44:14.918Z,1016.29
2018-05-23T05:45:14.934Z,1016.35
2018-05-23T05:46:14.926Z,1016.33
2018-05-23T05:47:14.937Z,1016.31
2018-05-23T05:48:14.957Z,1016.33
2018-05-23T05:49:15.021Z,1016.31
2018-05-23T05:50:15.392Z,1016.37
2018-05-23T05:51:15.005Z,1016.34
2018-05-23T05:52:15.027Z,1016.32
2018-05-23T05:53:15.040Z,1016.34
2018-05-23T05:54:15.058Z,1016.35
2018-05-23T05:55:15.092Z,1016.34
2018-05-23T05:56:15.156Z,1016.40
2018-05-23T05:57:15.113Z,1016.38
2018-05-23T05:58:15.120Z,1016.38
2018-05-23T05:59:15.134Z,1016.45
2018-05-23T06:00:15.171Z,1016.41
2018-05-23T06:01:15.193Z,1016.49
2018-05-23T06:02:15.264Z,1016.48
2018-05-23T06:03:15.244Z,1016.42
2018-05-23T06:04:15.227Z,1016.39
2018-05-23T06:05:15.224Z,1016.48
2018-05-23T06:06:15.235Z,1016.51
2018-05-23T06:07:15.273Z,1016.44
2018-05-23T06:08:15.322Z,1016.43
2018-05-23T06:09:15.286Z,1016.45
2018-05-23T06:10:15.320Z,1016.45
2018-05-23T06:11:15.323Z,1016.53
2018-05-23T06:12:15.326Z,1016.57
2018-05-23T06:13:15.377Z,1016.62
2018-05-23T06:14:15.396Z,1016.59
2018-05-23T06:15:15.410Z,1016.61
2018-05-23T06:16:15.396Z,1016.59
2018-05-23T06:17:15.403Z,1016.66
2018-05-23T06:18:15.409Z,1016.61
2018-05-23T06:19:15.490Z,1016.59
2018-05-23T06:20:15.465Z,1016.61
2018-05-23T06:21:15.473Z,1016.65
2018-05-23T06:22:15.548Z,1016.61
2018-05-23T06:23:15.504Z,1016.61
2018-05-23T06:24:15.528Z,1016.61
2018-05-23T06:25:15.545Z,1016.71
2018-05-23T06:26:15.582Z,1016.62
2018-05-23T06:27:15.555Z,1016.68
2018-05-23T06:28:15.562Z,1016.64
2018-05-23T06:29:15.575Z,1016.66
2018-05-23T06:30:15.669Z,1016.64
2018-05-23T06:31:15.667Z,1016.74
2018-05-23T06:32:15.629Z,1016.66
2018-05-23T06:33:15.823Z,1016.67
2018-05-23T06:34:15.640Z,1016.70
2018-05-23T06:35:15.651Z,1016.72
2018-05-23T06:36:15.653Z,1016.83
2018-05-23T06:37:15.793Z,1016.96
2018-05-23T06:38:15.699Z,1017.04
2018-05-23T06:39:15.700Z,1016.90
2018-05-23T06:40:15.732Z,1016.76
2018-05-23T06:41:15.730Z,1016.77
2018-05-23T06:42:15.793Z,1016.87
2018-05-23T06:43:15.750Z,1016.81
2018-05-23T06:44:15.805Z,1016.81
2018-05-23T06:45:15.825Z,1016.76
2018-05-23T06:46:15.801Z,1016.81
2018-05-23T06:47:15.825Z,1016.80
2018-05-23T06:48:15.819Z,1016.87
2018-05-23T06:49:15.908Z,1016.82
2018-05-23T06:50:15.845Z,1016.85
2018-05-23T06:51:15.855Z,1016.89
2018-05-23T06:52:15.916Z,1016.89
2018-05-23T06:53:15.903Z,1016.92
2018-05-23T06:54:15.955Z,1017.00
2018-05-23T06:55:15.935Z,1016.96
2018-05-23T06:56:15.976Z,1016.94
2018-05-23T06:57:15.941Z,1016.99
2018-05-23T06:58:15.950Z,1016.93
2018-05-23T06:59:16.005Z,1016.96
2018-05-23T07:00:16.030Z,1016.91
2018-05-23T07:01:15.978Z,1016.92
2018-05-23T07:02:16.006Z,1016.91
2018-05-23T07:03:16.029Z,1016.92
2018-05-23T07:04:16.043Z,1016.89
2018-05-23T07:05:16.111Z,1016.94
2018-05-23T07:06:16.060Z,1016.93
2018-05-23T07:07:16.076Z,1016.89
2018-05-23T07:08:16.107Z,1016.91
2018-05-23T07:09:16.136Z,1016.96
2018-05-23T07:10:16.125Z,1016.97
2018-05-23T07:11:16.129Z,1017.03
2018-05-23T07:12:16.207Z,1016.97
2018-05-23T07:13:16.164Z,1017.01
2018-05-23T07:14:16.165Z,1017.03
2018-05-23T07:15:16.181Z,1016.99
2018-05-23T07:16:16.184Z,1017.02
2018-05-23T07:17:16.240Z,1016.97
2018-05-23T07:18:16.258Z,1017.01
2018-05-23T07:19:16.245Z,1016.92
2018-05-23T07:20:16.250Z,1017.00
2018-05-23T07:21:16.273Z,1016.99
2018-05-23T07:22:16.268Z,1017.07
2018-05-23T07:23:16.336Z,1016.94
2018-05-23T07:24:16.292Z,1016.94
2018-05-23T07:25:16.317Z,1016.93
2018-05-23T07:26:16.338Z,1017.05
2018-05-23T07:27:16.349Z,1016.97
2018-05-23T07:28:16.369Z,1016.94
2018-05-23T07:29:16.424Z,1016.90
2018-05-23T07:30:16.386Z,1016.99
2018-05-23T07:31:16.436Z,1016.98
2018-05-23T07:32:16.415Z,1017.04
2018-05-23T07:33:16.414Z,1017.03
2018-05-23T07:34:16.463Z,1017.02
2018-05-23T07:35:16.467Z,1017.00
2018-05-23T07:36:16.532Z,1017.05
2018-05-23T07:37:16.504Z,1017.00
2018-05-23T07:38:16.536Z,1017.02
2018-05-23T07:39:16.503Z,1017.09
2018-05-23T07:40:16.518Z,1017.05
2018-05-23T07:41:16.566Z,1017.11
2018-05-23T07:42:16.570Z,1017.06
2018-05-23T07:43:16.561Z,1017.02
2018-05-23T07:44:16.568Z,1017.06
2018-05-23T07:45:16.584Z,1017.03
2018-05-23T07:46:16.602Z,1017.14
2018-05-23T07:47:16.641Z,1017.02
2018-05-23T07:48:16.656Z,1017.06
2018-05-23T07:49:16.721Z,1017.12
2018-05-23T07:50:16.647Z,1017.05
2018-05-23T07:51:16.683Z,1017.07
2018-05-23T07:52:16.676Z,1017.07
2018-05-23T07:53:16.691Z,1017.08
2018-05-23T07:54:16.744Z,1017.10
2018-05-23T07:55:16.730Z,1017.08
2018-05-23T07:56:16.721Z,1017.07
2018-05-23T07:57:16.772Z,1017.06
2018-05-23T07:58:16.772Z,1017.08
2018-05-23T07:59:16.796Z,1017.13
2018-05-23T08:00:16.819Z,1017.15
2018-05-23T08:01:16.845Z,1017.10
2018-05-23T08:02:16.818Z,1017.11
2018-05-23T08:03:16.831Z,1017.13
2018-05-23T08:04:16.866Z,1017.09
2018-05-23T08:05:16.852Z,1017.18
2018-05-23T08:06:16.883Z,1017.12
2018-05-23T08:07:16.937Z,1017.11
2018-05-23T08:08:16.880Z,1017.12
2018-05-23T08:09:16.928Z,1017.17
2018-05-23T08:10:16.926Z,1017.09
2018-05-23T08:11:16.944Z,1017.16
2018-05-23T08:12:16.969Z,1017.19
2018-05-23T08:13:16.996Z,1017.13
2018-05-23T08:14:16.985Z,1017.15
2018-05-23T08:15:17.004Z,1017.16
2018-05-23T08:16:17.010Z,1017.18
2018-05-23T08:17:17.008Z,1017.14
2018-05-23T08:18:17.101Z,1017.11
2018-05-23T08:19:17.033Z,1017.16
2018-05-23T08:20:17.067Z,1017.14
2018-05-23T08:21:17.070Z,1017.12
2018-05-23T08:22:17.077Z,1017.17
2018-05-23T08:23:17.117Z,1017.16
2018-05-23T08:24:17.172Z,1017.17
2018-05-23T08:25:17.140Z,1017.21
2018-05-23T08:26:17.195Z,1017.13
2018-05-23T08:27:17.146Z,1017.20
2018-05-23T08:28:17.154Z,1017.12
2018-05-23T08:29:17.163Z,1017.09
2018-05-23T08:30:17.189Z,1017.16
2018-05-23T08:31:17.262Z,1017.19
2018-05-23T08:32:17.243Z,1017.19
2018-05-23T08:33:17.291Z,1017.17
2018-05-23T08:34:17.248Z,1017.16
2018-05-23T08:35:17.262Z,1017.21
2018-05-23T08:36:17.316Z,1017.13
2018-05-23T08:37:17.339Z,1017.13
2018-05-23T08:38:17.337Z,1017.12
2018-05-23T08:39:17.299Z,1017.14
2018-05-23T08:40:17.362Z,1017.18
2018-05-23T08:41:17.357Z,1017.21
2018-05-23T08:42:17.358Z,1017.17
2018-05-23T08:43:17.378Z,1017.24
2018-05-23T08:44:17.424Z,1017.19
2018-05-23T08:45:17.418Z,1017.19
2018-05-23T08:46:17.418Z,1017.20
2018-05-23T08:47:17.428Z,1017.22
2018-05-23T08:48:17.450Z,1017.20
2018-05-23T08:49:17.488Z,1017.20
2018-05-23T08:50:17.513Z,1017.19
2018-05-23T08:51:17.475Z,1017.26
2018-05-23T08:52:17.503Z,1017.22
2018-05-23T08:53:17.498Z,1017.26
2018-05-23T08:54:17.520Z,1017.27
2018-05-23T08:55:17.585Z,1017.28
2018-05-23T08:56:17.554Z,1017.28
2018-05-23T08:57:17.564Z,1017.21
2018-05-23T08:58:17.571Z,1017.31
2018-05-23T08:59:17.640Z,1017.31
2018-05-23T09:00:17.646Z,1017.30
2018-05-23T09:01:17.645Z,1017.29
2018-05-23T09:02:17.619Z,1017.33
2018-05-23T09:03:17.673Z,1017.33
2018-05-23T09:04:17.676Z,1017.28
2018-05-23T09:05:17.680Z,1017.32
2018-05-23T09:06:17.684Z,1017.32
2018-05-23T09:07:17.746Z,1017.32
2018-05-23T09:08:17.700Z,1017.33
2018-05-23T09:09:17.733Z,1017.31
2018-05-23T09:10:17.748Z,1017.38
2018-05-23T09:11:17.768Z,1017.45
2018-05-23T09:12:17.801Z,1017.46
2018-05-23T09:13:17.789Z,1017.32
2018-05-23T09:14:17.799Z,1017.34
2018-05-23T09:15:17.797Z,1017.31
2018-05-23T09:16:17.812Z,1017.33
2018-05-23T09:17:17.861Z,1017.36
2018-05-23T09:18:17.924Z,1017.36
2018-05-23T09:19:17.868Z,1017.38
2018-05-23T09:20:17.883Z,1017.34
2018-05-23T09:21:17.887Z,1017.37
2018-05-23T09:22:17.904Z,1017.40
2018-05-23T09:23:17.972Z,1017.45
2018-05-23T09:24:17.943Z,1017.45
2018-05-23T09:25:18.039Z,1017.45
2018-05-23T09:26:17.977Z,1017.45
2018-05-23T09:27:17.969Z,1017.43
2018-05-23T09:28:18.031Z,1017.42
2018-05-23T09:29:18.012Z,1017.43
2018-05-23T09:30:18.019Z,1017.45
2018-05-23T09:31:18.048Z,1017.45
2018-05-23T09:32:18.133Z,1017.50
2018-05-23T09:33:18.108Z,1017.55
2018-05-23T09:34:18.127Z,1017.48
2018-05-23T09:35:18.092Z,1017.53
2018-05-23T09:36:18.097Z,1017.51
2018-05-23T09:37:18.107Z,1017.42
2018-05-23T09:38:18.130Z,1017.44
2018-05-23T09:39:18.244Z,1017.49
2018-05-23T09:40:18.176Z,1017.42
2018-05-23T09:41:18.182Z,1017.42
2018-05-23T09:42:18.194Z,1017.41
2018-05-23T09:43:18.207Z,1017.43
2018-05-23T09:44:18.239Z,1017.45
2018-05-23T09:45:18.257Z,1017.49
2018-05-23T09:46:18.248Z,1017.46
2018-05-23T09:47:18.261Z,1017.49
2018-05-23T09:48:18.342Z,1017.46
2018-05-23T09:49:18.287Z,1017.45
2018-05-23T09:50:18.301Z,1017.46
2018-05-23T09:51:18.358Z,1017.45
2018-05-23T09:52:18.320Z,1017.48
2018-05-23T09:53:18.399Z,1017.46
2018-05-23T09:54:18.369Z,1017.43
2018-05-23T09:55:18.403Z,1017.40
2018-05-23T09:56:18.389Z,1017.38
2018-05-23T09:57:18.401Z,1017.45
2018-05-23T09:58:18.437Z,1017.43
2018-05-23T09:59:18.416Z,1017.33
2018-05-23T10:00:18.459Z,1017.32
2018-05-23T10:01:18.482Z,1017.36
2018-05-23T10:02:18.493Z,1017.43
2018-05-23T10:03:18.496Z,1017.44
2018-05-23T10:04:18.494Z,1017.38
2018-05-23T10:05:18.529Z,1017.43
2018-05-23T10:06:18.561Z,1017.42
2018-05-23T10:07:18.568Z,1017.49
2018-05-23T10:08:18.559Z,1017.47
2018-05-23T10:09:18.577Z,1017.52
2018-05-23T10:10:18.584Z,1017.44
2018-05-23T10:11:18.597Z,1017.44
2018-05-23T10:12:18.650Z,1017.47
2018-05-23T10:13:18.698Z,1017.40
2018-05-23T10:14:18.638Z,1017.47
2018-05-23T10:15:18.673Z,1017.49
2018-05-23T10:16:18.681Z,1017.48
2018-05-23T10:17:18.689Z,1017.55
2018-05-23T10:18:18.746Z,1017.46
2018-05-23T10:19:18.724Z,1017.44
2018-05-23T10:20:18.744Z,1017.43
2018-05-23T10:21:18.771Z,1017.46
2018-05-23T10:22:18.759Z,1017.42
2018-05-23T10:23:18.805Z,1017.38
2018-05-23T10:24:18.849Z,1017.41
2018-05-23T10:25:18.839Z,1017.50
2018-05-23T10:26:18.873Z,1017.42
2018-05-23T10:27:18.875Z,1017.48
2018-05-23T10:28:18.870Z,1017.45
2018-05-23T10:29:18.885Z,1017.45
2018-05-23T10:30:18.930Z,1017.47
2018-05-23T10:31:18.911Z,1017.56
2018-05-23T10:32:18.918Z,1017.55
2018-05-23T10:33:18.947Z,1017.61
2018-05-23T10:34:18.959Z,1017.59
2018-05-23T10:35:18.997Z,1017.58
2018-05-23T10:36:18.979Z,1017.51
2018-05-23T10:37:18.988Z,1017.61
2018-05-23T10:38:19.063Z,1017.59
2018-05-23T10:39:19.012Z,1017.54
2018-05-23T10:40:19.012Z,1017.68
2018-05-23T10:41:19.056Z,1017.65
2018-05-23T10:42:19.044Z,1017.61
2018-05-23T10:43:19.120Z,1017.69
2018-05-23T10:44:19.079Z,1017.67
2018-05-23T10:45:19.099Z,1017.70
2018-05-23T10:46:19.136Z,1017.67
2018-05-23T10:47:19.120Z,1017.75
2018-05-23T10:48:19.161Z,1017.67
2018-05-23T10:49:19.147Z,1017.71
2018-05-23T10:50:19.185Z,1017.70
2018-05-23T10:51:19.186Z,1017.72
2018-05-23T10:52:19.194Z,1017.69
2018-05-23T10:53:19.263Z,1017.64
2018-05-23T10:54:19.208Z,1017.64
2018-05-23T10:55:19.300Z,1017.63
2018-05-23T10:56:19.270Z,1017.65
2018-05-23T10:57:19.268Z,1017.69
2018-05-23T10:58:19.319Z,1017.71
2018-05-23T10:59:19.291Z,1017.71
2018-05-23T11:00:19.320Z,1017.67
2018-05-23T11:01:19.331Z,1017.72
2018-05-23T11:02:19.379Z,1017.75
2018-05-23T11:03:19.375Z,1017.67
2018-05-23T11:04:19.374Z,1017.72
2018-05-23T11:05:19.461Z,1017.74
2018-05-23T11:06:19.406Z,1017.72
2018-05-23T11:07:19.423Z,1017.74
2018-05-23T11:08:19.431Z,1017.66
2018-05-23T11:09:19.441Z,1017.70
2018-05-23T11:10:19.556Z,1017.73
2018-05-23T11:11:19.493Z,1017.75
2018-05-23T11:12:19.497Z,1017.94
2018-05-23T11:13:19.552Z,1017.85
2018-05-23T11:14:19.526Z,1017.74
2018-05-23T11:15:19.645Z,1017.76
2018-05-23T11:16:19.535Z,1017.75
2018-05-23T11:17:19.571Z,1017.73
2018-05-23T11:18:19.584Z,1017.79
2018-05-23T11:19:19.587Z,1017.80
2018-05-23T11:20:19.620Z,1017.81
2018-05-23T11:21:19.666Z,1017.75
2018-05-23T11:22:19.655Z,1018.10
2018-05-23T11:23:19.631Z,1017.75
2018-05-23T11:24:19.681Z,1017.73
2018-05-23T11:25:19.705Z,1017.72
2018-05-23T11:26:19.703Z,1017.73
2018-05-23T11:27:19.828Z,1017.66
2018-05-23T11:28:19.739Z,1017.72
2018-05-23T11:29:19.722Z,1017.79
2018-05-23T11:30:19.736Z,1017.74
2018-05-23T11:31:19.832Z,1017.69
2018-05-23T11:32:19.844Z,1017.64
2018-05-23T11:33:19.811Z,1017.63
2018-05-23T11:34:19.818Z,1017.70
2018-05-23T11:35:19.880Z,1017.62
2018-05-23T11:36:19.896Z,1017.60
2018-05-23T11:37:19.856Z,1017.74
2018-05-23T11:38:19.868Z,1017.67
2018-05-23T11:39:19.893Z,1017.63
2018-05-23T11:40:19.952Z,1017.72
2018-05-23T11:41:19.909Z,1017.62
2018-05-23T11:42:19.924Z,1017.53
2018-05-23T11:43:19.960Z,1017.68
2018-05-23T11:44:19.975Z,1017.55
2018-05-23T11:45:19.994Z,1017.52
2018-05-23T11:46:20.006Z,1017.59
2018-05-23T11:47:20.052Z,1017.66
2018-05-23T11:48:20.001Z,1017.58
2018-05-23T11:49:20.025Z,1017.53
2018-05-23T11:50:20.052Z,1017.58
2018-05-23T11:51:20.073Z,1017.50
2018-05-23T11:52:20.122Z,1017.54
2018-05-23T11:53:20.090Z,1017.66
2018-05-23T11:54:20.102Z,1017.55
2018-05-23T11:55:20.118Z,1017.54
2018-05-23T11:56:20.132Z,1017.51
2018-05-23T11:57:20.169Z,1017.77
2018-05-23T11:58:20.170Z,1017.59
2018-05-23T11:59:20.218Z,1017.51
2018-05-23T12:00:20.201Z,1017.58
2018-05-23T12:01:20.193Z,1017.48
2018-05-23T12:02:20.212Z,1017.52
2018-05-23T12:03:20.226Z,1017.66
2018-05-23T12:04:20.280Z,1017.54
2018-05-23T12:05:20.323Z,1017.67